Triangle, Virginia
Current Conditions -  °F | °C
As of 7:56 PM on Monday 26 Jan 2015 (Local Time) from KNYG Reporting Station
Light Rain Light Rain  
Wind Chill: 24°   Ceiling: 1300
Heat Index: 32°   Visibility: NA
Dew Point: 28°   Wind: 10mph
Humidity: 85%   Direction: 340°NNW
Pressure: 29.76"   Gusts: NA
Location:  38.55°N, 77.34°W
Report Text: KNYG 270056Z 34009KT -RA OVC013 00/M02 A2976 RMK AO2 SLP078 P0000 T00001022 $
Loading
Personal Weather Stations






























Interactive Weather Map New forecast layout! Learn more

10-Day Weather Forecast

Advertisements
Track Severe Weather on mobile